Time;durP1;ratioP1;P1;durP2;ratioP2;P2;SDS_P1;SDS_P2;PMS_P1;PMS_P2;Temp;Humidity;BMP_temperature;BMP_pressure;BME280_temperature;BME280_humidity;BME280_pressure;Samples;Min_cycle;Max_cycle;Signal;HPM_P1;HPM_P2
2022/03/22 00:00:07;;;;;;;24.00;13.60;;;;;;;18.40;43.38;101701.72;5124356;27;20568;-62
2022/03/22 00:02:32;;;;;;;22.80;16.10;;;;;;;18.39;41.90;101693.47;5117976;27;20234;-62
2022/03/22 00:04:57;;;;;;;17.40;11.97;;;;;;;18.42;41.42;101693.63;5111502;27;20476;-61
2022/03/22 00:07:23;;;;;;;22.20;13.37;;;;;;;18.56;39.12;101694.19;5127819;27;20185;-65
2022/03/22 00:09:49;;;;;;;22.20;13.97;;;;;;;18.76;37.66;101692.56;5115748;27;20675;-63
2022/03/22 00:12:14;;;;;;;23.13;13.83;;;;;;;18.98;38.21;101701.63;5114585;27;20165;-65
2022/03/22 00:14:40;;;;;;;25.23;13.90;;;;;;;19.04;37.88;101694.47;5095183;27;20170;-62
2022/03/22 00:17:05;;;;;;;22.23;12.90;;;;;;;19.19;39.21;101695.84;5127727;27;20185;-64
2022/03/22 00:19:31;;;;;;;19.13;12.00;;;;;;;19.40;39.39;101697.53;5129047;27;20158;-64
2022/03/22 00:21:57;;;;;;;20.83;12.30;;;;;;;19.50;39.76;101688.47;5133138;27;20895;-64
2022/03/22 00:24:23;;;;;;;24.00;11.70;;;;;;;19.59;40.11;101694.94;5131683;27;20223;-62
2022/03/22 00:26:49;;;;;;;28.20;13.23;;;;;;;19.60;40.94;101690.91;5123460;27;20878;-64
2022/03/22 00:29:14;;;;;;;17.90;11.03;;;;;;;19.65;40.78;101698.41;5114098;27;20197;-66
2022/03/22 00:31:40;;;;;;;26.10;11.00;;;;;;;19.68;40.95;101692.84;5094316;28;20974;-62
2022/03/22 00:34:05;;;;;;;21.40;11.80;;;;;;;19.55;41.44;101699.72;5128260;27;20627;-62
2022/03/22 00:36:32;;;;;;;19.00;10.50;;;;;;;19.55;42.26;101693.97;5121198;27;20182;-62
2022/03/22 00:38:57;;;;;;;18.17;11.10;;;;;;;19.52;42.99;101702.47;5125504;27;20180;-62
2022/03/22 00:41:22;;;;;;;19.60;9.63;;;;;;;19.45;43.40;101697.28;5127782;27;20412;-61
2022/03/22 00:43:48;;;;;;;19.40;11.10;;;;;;;19.44;43.89;101706.25;5112021;28;20543;-62
2022/03/22 00:46:13;;;;;;;13.73;9.47;;;;;;;19.41;44.05;101704.91;5112586;28;20170;-62
2022/03/22 00:48:40;;;;;;;20.43;10.40;;;;;;;19.41;44.17;101702.06;5126126;27;20176;-62
2022/03/22 00:51:06;;;;;;;16.50;9.70;;;;;;;19.42;44.62;101706.59;5129439;27;20176;-63
2022/03/22 00:53:32;;;;;;;14.80;9.80;;;;;;;19.39;44.82;101709.31;5132082;27;20909;-63
2022/03/22 00:56:00;;;;;;;12.90;9.13;;;;;;;19.37;45.18;101697.41;5128701;27;20173;-63
2022/03/22 00:58:26;;;;;;;18.23;10.37;;;;;;;19.37;45.38;101698.22;5121817;27;20423;-62
2022/03/22 01:00:51;;;;;;;22.13;10.47;;;;;;;19.34;45.39;101692.38;5111295;27;20438;-62
2022/03/22 01:03:17;;;;;;;13.40;8.80;;;;;;;19.31;45.27;101695.94;5112332;28;20181;-62
2022/03/22 01:05:42;;;;;;;21.80;9.30;;;;;;;19.28;45.50;101696.63;5110636;28;20226;-62
2022/03/22 01:08:10;;;;;;;13.33;8.97;;;;;;;19.25;45.28;101686.72;5112605;28;20177;-62
2022/03/22 01:10:37;;;;;;;14.40;8.53;;;;;;;19.21;45.62;101694.31;5111254;28;20197;-62
2022/03/22 01:13:03;;;;;;;13.70;8.47;;;;;;;19.18;45.78;101695.03;5109765;28;20494;-62
2022/03/22 01:15:33;;;;;;;19.13;8.53;;;;;;;19.17;45.93;101699.06;5110747;28;20434;-62
2022/03/22 01:18:04;;;;;;;15.20;8.50;;;;;;;19.17;46.67;101696.19;5110286;27;20781;-62
2022/03/22 01:20:31;;;;;;;10.70;7.67;;;;;;;19.16;46.47;101696.56;5125597;27;20415;-62
2022/03/22 01:22:56;;;;;;;21.33;8.70;;;;;;;19.14;46.74;101696.91;5110523;28;20561;-62
2022/03/22 01:25:25;;;;;;;17.57;7.80;;;;;;;19.13;46.68;101689.53;5110010;28;20813;-62
2022/03/22 01:27:50;;;;;;;16.87;8.40;;;;;;;19.13;46.89;101686.66;5111412;28;20158;-62
2022/03/22 01:30:19;;;;;;;14.67;7.53;;;;;;;19.11;47.08;101693.94;5110583;28;20937;-62
2022/03/22 01:32:45;;;;;;;17.37;8.43;;;;;;;19.10;47.05;101683.63;5110813;28;20331;-62
2022/03/22 01:35:10;;;;;;;11.87;7.27;;;;;;;19.13;46.77;101683.78;5110220;28;20483;-62
2022/03/22 01:37:36;;;;;;;14.17;7.90;;;;;;;19.14;46.76;101682.59;5111198;28;20182;-62
2022/03/22 01:40:03;;;;;;;16.80;7.93;;;;;;;19.13;46.94;101683.78;5110661;28;20166;-61
2022/03/22 01:42:29;;;;;;;12.43;7.93;;;;;;;19.09;47.38;101682.81;5110125;28;20982;-61
2022/03/22 01:44:54;;;;;;;10.90;7.10;;;;;;;19.11;47.09;101686.16;5111144;28;20415;-61
2022/03/22 01:47:23;;;;;;;13.17;7.40;;;;;;;19.09;47.42;101685.69;5111527;28;20230;-61
2022/03/22 01:49:48;;;;;;;13.97;7.40;;;;;;;19.10;48.07;101687.34;5111121;28;20616;-61
2022/03/22 01:52:15;;;;;;;14.77;7.40;;;;;;;19.05;47.84;101678.97;5111206;28;20408;-61
2022/03/22 01:54:40;;;;;;;12.90;8.27;;;;;;;19.06;47.79;101672.06;5124768;27;20542;-61
2022/03/22 01:57:07;;;;;;;11.40;7.10;;;;;;;19.09;48.06;101673.38;5131648;27;20403;-61
2022/03/22 01:59:33;;;;;;;10.00;7.13;;;;;;;19.08;47.77;101674.56;5131558;27;20640;-61
2022/03/22 02:07:31;;;;;;;7.63;5.83;;;;;;;19.09;48.20;101674.22;5113636;27;20481;-61
2022/03/22 02:09:56;;;;;;;9.90;6.77;;;;;;;19.06;48.11;101674.94;5119164;27;20919;-61
2022/03/22 02:12:21;;;;;;;13.67;7.20;;;;;;;19.06;48.21;101672.06;5128037;27;20430;-61
2022/03/22 02:14:47;;;;;;;10.90;6.70;;;;;;;19.09;48.32;101673.38;5131524;27;20259;-61
2022/03/22 02:17:12;;;;;;;11.60;6.67;;;;;;;19.06;48.75;101676.97;5121578;27;20540;-61
2022/03/22 02:19:41;;;;;;;11.97;6.97;;;;;;;19.07;48.43;101664.31;5110843;28;20173;-61
2022/03/22 02:22:08;;;;;;;10.73;7.13;;;;;;;19.04;48.47;101680.19;5111027;28;20174;-61
2022/03/22 02:24:35;;;;;;;10.90;6.27;;;;;;;19.07;48.60;101679.44;5110886;28;20449;-61
2022/03/22 02:27:00;;;;;;;8.93;6.40;;;;;;;19.06;48.86;101671.25;5109918;28;20412;-61
2022/03/22 02:29:26;;;;;;;10.93;6.77;;;;;;;19.06;48.78;101676.97;5109116;28;20827;-61
2022/03/22 02:31:53;;;;;;;10.50;6.50;;;;;;;19.07;48.65;101675.78;5110548;28;20255;-61
2022/03/22 02:34:19;;;;;;;10.13;6.30;;;;;;;19.09;48.08;101668.50;5110768;28;20174;-61
2022/03/22 02:36:44;;;;;;;10.77;6.80;;;;;;;19.09;48.68;101668.50;5109642;28;20426;-61
2022/03/22 02:39:10;;;;;;;9.90;6.00;;;;;;;19.08;49.29;101663.97;5092327;28;20535;-61
2022/03/22 02:41:36;;;;;;;11.90;6.20;;;;;;;19.07;48.96;101670.03;5115203;27;20222;-61
2022/03/22 02:44:01;;;;;;;9.80;5.80;;;;;;;19.09;48.78;101670.53;5110479;28;20522;-62
2022/03/22 02:46:27;;;;;;;10.47;6.47;;;;;;;19.08;48.90;101669.69;5110753;28;20165;-62
2022/03/22 02:48:52;;;;;;;12.20;6.23;;;;;;;19.10;48.76;101675.91;5110034;28;20182;-62
2022/03/22 02:51:17;;;;;;;10.20;6.87;;;;;;;19.10;49.11;101675.06;5110468;28;20253;-61
2022/03/22 02:53:43;;;;;;;10.07;5.90;;;;;;;19.08;49.09;101680.31;5110661;28;20197;-61
2022/03/22 02:56:09;;;;;;;18.43;5.80;;;;;;;19.10;48.89;101672.19;5110583;28;20228;-61
2022/03/22 02:58:34;;;;;;;8.43;6.20;;;;;;;19.06;49.07;101672.06;5112900;28;20535;-61
2022/03/22 03:01:00;;;;;;;9.60;6.03;;;;;;;19.09;49.35;101670.53;5109813;28;20205;-61
2022/03/22 03:03:26;;;;;;;9.23;5.87;;;;;;;19.08;49.17;101671.72;5110236;28;20174;-61
2022/03/22 03:05:51;;;;;;;10.20;6.00;;;;;;;19.05;48.98;101672.41;5110145;28;20795;-61
2022/03/22 03:08:17;;;;;;;9.60;6.07;;;;;;;19.07;49.84;101670.88;5110383;28;20170;-61
2022/03/22 03:10:43;;;;;;;9.70;6.70;;;;;;;19.06;49.08;101680.66;5109727;28;20197;-61
2022/03/22 03:13:08;;;;;;;8.03;5.87;;;;;;;19.06;49.37;101682.69;5110404;28;20177;-61
2022/03/22 03:15:34;;;;;;;10.17;5.60;;;;;;;19.06;49.26;101686.38;5092186;28;20184;-61
2022/03/22 03:17:59;;;;;;;12.23;5.53;;;;;;;19.09;49.25;101684.84;5126259;28;20245;-61
2022/03/22 03:20:25;;;;;;;12.13;6.43;;;;;;;19.07;49.28;101690.09;5130355;28;20161;-61
2022/03/22 03:22:50;;;;;;;10.83;5.60;;;;;;;19.05;49.78;101687.56;5130776;28;20229;-61
2022/03/22 03:25:18;;;;;;;8.87;6.10;;;;;;;19.07;49.41;101688.03;5130940;28;20415;-61
2022/03/22 03:27:43;;;;;;;10.27;5.83;;;;;;;19.07;49.60;101696.63;5130502;28;20505;-61
2022/03/22 03:30:09;;;;;;;8.33;5.57;;;;;;;19.06;49.31;101692.09;5132964;27;20487;-61
2022/03/22 03:32:34;;;;;;;8.17;5.70;;;;;;;19.04;49.44;101694.47;5115963;27;20172;-62
2022/03/22 03:35:00;;;;;;;9.30;5.40;;;;;;;19.02;49.62;101699.72;5134854;27;20170;-61
2022/03/22 03:37:28;;;;;;;9.77;5.77;;;;;;;19.03;49.58;101698.53;5119214;27;20216;-61
2022/03/22 03:39:54;;;;;;;11.20;5.90;;;;;;;19.03;49.81;101692.81;5113731;28;20174;-61
2022/03/22 03:42:20;;;;;;;8.27;5.70;;;;;;;19.01;50.00;101700.91;5113527;28;20564;-61
2022/03/22 03:47:29;;;;;;;8.77;6.27;;;;;;;19.00;49.79;101696.38;5113969;28;20659;-62
2022/03/22 03:49:56;;;;;;;8.37;5.50;;;;;;;19.02;50.09;101705.44;5113678;28;20443;-61
2022/03/22 03:52:26;;;;;;;9.73;5.97;;;;;;;19.04;49.75;101705.09;5113625;28;20178;-61
2022/03/22 03:54:52;;;;;;;9.63;5.63;;;;;;;19.02;49.82;101705.44;5113643;28;20970;-61
2022/03/22 03:57:18;;;;;;;7.97;5.40;;;;;;;19.02;50.03;101702.56;5115748;27;20415;-61
2022/03/22 03:59:43;;;;;;;6.30;4.87;;;;;;;19.03;50.13;101712.00;5113185;28;20411;-61
2022/03/22 04:02:10;;;;;;;8.33;5.93;;;;;;;19.02;50.10;101710.34;5118749;27;20162;-61
2022/03/22 04:04:36;;;;;;;8.47;4.80;;;;;;;19.01;49.97;101712.34;5113404;28;20190;-61
2022/03/22 04:07:03;;;;;;;8.27;5.63;;;;;;;19.01;50.13;101709.50;5114264;27;20450;-62
2022/03/22 04:09:28;;;;;;;7.50;5.07;;;;;;;19.03;50.42;101714.88;5094704;28;20715;-61
2022/03/22 04:11:54;;;;;;;9.23;5.67;;;;;;;19.02;49.70;101716.88;5112942;28;20484;-61
2022/03/22 04:14:19;;;;;;;8.00;5.57;;;;;;;19.02;50.14;101719.75;5113442;27;20173;-61
2022/03/22 04:16:46;;;;;;;9.13;5.90;;;;;;;19.00;50.03;101724.13;5116447;27;20182;-61
2022/03/22 04:19:11;;;;;;;9.07;5.40;;;;;;;19.01;50.49;101722.97;5113175;28;20174;-61
2022/03/22 04:21:38;;;;;;;8.17;4.90;;;;;;;19.00;50.12;101733.56;5113144;28;20426;-61
2022/03/22 04:24:07;;;;;;;8.60;5.43;;;;;;;19.01;49.81;101728.69;5094801;28;20173;-61
2022/03/22 04:26:36;;;;;;;8.47;5.60;;;;;;;19.02;49.84;101730.38;5112973;28;20418;-61
2022/03/22 04:34:31;;;;;;;9.73;5.70;;;;;;;18.99;50.13;101726.19;5117724;27;20422;-61
2022/03/22 04:36:57;;;;;;;10.23;6.80;;;;;;;19.01;50.11;101732.38;5112994;27;20451;-61
2022/03/22 04:39:25;;;;;;;7.57;5.63;;;;;;;19.01;50.08;101734.44;5112197;28;20404;-61
2022/03/22 04:41:50;;;;;;;9.93;6.50;;;;;;;19.02;50.06;101739.78;5111430;28;20421;-61
2022/03/22 04:44:17;;;;;;;8.67;5.70;;;;;;;18.98;50.29;101730.25;5094308;28;20420;-61
2022/03/22 04:46:43;;;;;;;6.93;5.23;;;;;;;19.03;50.03;101738.63;5112821;28;20187;-61
2022/03/22 04:49:08;;;;;;;11.60;5.70;;;;;;;18.99;50.43;101734.78;5111733;28;21008;-61
2022/03/22 04:57:02;;;;;;;9.50;5.57;;;;;;;19.00;49.93;101733.56;5112558;28;20403;-61
2022/03/22 04:59:27;;;;;;;7.80;4.70;;;;;;;18.98;50.49;101735.13;5112183;28;20506;-61
2022/03/22 05:01:53;;;;;;;6.93;4.70;;;;;;;18.98;50.23;101741.69;5111831;28;20170;-61
2022/03/22 05:04:18;;;;;;;6.87;4.33;;;;;;;18.99;50.20;101736.78;5112264;28;20193;-61
2022/03/22 05:06:44;;;;;;;6.70;4.93;;;;;;;18.97;50.58;101730.59;5115536;27;20828;-61
2022/03/22 05:09:12;;;;;;;7.13;4.93;;;;;;;18.98;50.76;101735.97;5132644;27;20193;-61
2022/03/22 05:11:38;;;;;;;9.30;5.17;;;;;;;18.99;50.40;101737.63;5133019;27;20205;-61
2022/03/22 05:14:03;;;;;;;6.37;4.70;;;;;;;19.00;50.46;101744.19;5132468;27;20444;-61
2022/03/22 05:16:35;;;;;;;8.63;5.47;;;;;;;19.02;50.23;101736.91;5129427;27;20226;-61
2022/03/22 05:19:00;;;;;;;9.23;5.33;;;;;;;18.98;50.49;101738.81;5111752;28;20226;-61
2022/03/22 05:21:26;;;;;;;8.03;5.23;;;;;;;19.01;50.37;101746.69;5093810;28;20412;-61
2022/03/22 05:23:51;;;;;;;7.60;4.90;;;;;;;18.98;50.35;101747.41;5093605;28;20182;-61
2022/03/22 05:26:17;;;;;;;8.40;5.43;;;;;;;18.99;50.58;101745.38;5112130;28;20230;-61
2022/03/22 05:28:45;;;;;;;8.77;4.63;;;;;;;18.98;50.37;101749.41;5111496;28;20154;-61
2022/03/22 05:31:12;;;;;;;6.40;4.37;;;;;;;18.99;50.42;101746.22;5111717;28;20253;-61
2022/03/22 05:33:38;;;;;;;9.23;5.20;;;;;;;18.99;50.32;101751.94;5111477;28;20509;-61
2022/03/22 05:36:04;;;;;;;6.90;4.97;;;;;;;19.02;50.48;101745.50;5111701;28;20766;-61
2022/03/22 05:38:30;;;;;;;7.30;4.80;;;;;;;19.02;50.25;101742.63;5111865;28;20502;-62
2022/03/22 05:40:56;;;;;;;8.00;5.33;;;;;;;18.99;50.52;101746.22;5111117;28;20445;-61
2022/03/22 05:43:22;;;;;;;6.50;4.60;;;;;;;18.98;50.40;101753.13;5111727;28;20522;-61
2022/03/22 05:45:48;;;;;;;5.60;4.37;;;;;;;18.98;50.71;101747.41;5111588;28;20532;-61
2022/03/22 05:48:17;;;;;;;7.27;4.97;;;;;;;19.01;50.47;101749.56;5111348;28;20185;-61
2022/03/22 05:50:42;;;;;;;6.63;4.73;;;;;;;19.01;50.67;101752.41;5110960;28;21003;-61
2022/03/22 05:53:10;;;;;;;6.00;4.83;;;;;;;19.00;50.51;101758.47;5111472;28;20415;-61
2022/03/22 05:55:36;;;;;;;6.53;4.77;;;;;;;19.00;50.58;101749.91;5112133;27;20150;-61
2022/03/22 05:58:01;;;;;;;6.27;4.20;;;;;;;19.02;50.58;101747.53;5129337;27;20467;-61
2022/03/22 06:00:27;;;;;;;8.07;4.60;;;;;;;19.00;50.70;101762.19;5131338;27;20413;-61
2022/03/22 06:02:52;;;;;;;7.33;4.93;;;;;;;19.01;50.40;101763.06;5126838;27;20170;-61
2022/03/22 06:05:18;;;;;;;7.30;4.97;;;;;;;19.01;50.35;101768.78;5125021;27;20581;-61
2022/03/22 06:07:44;;;;;;;8.80;4.90;;;;;;;19.04;50.56;101773.78;5120974;27;20173;-61
2022/03/22 06:10:12;;;;;;;6.40;4.50;;;;;;;19.05;50.55;101770.56;5131555;27;20287;-62
2022/03/22 06:12:44;;;;;;;6.33;4.60;;;;;;;19.03;50.46;101764.38;5130976;27;20260;-61
2022/03/22 06:15:16;;;;;;;6.23;4.43;;;;;;;19.00;50.38;101773.66;5126562;27;20771;-61
2022/03/22 06:17:49;;;;;;;6.03;4.60;;;;;;;19.03;50.66;101769.25;5116540;27;20463;-61
2022/03/22 06:20:15;;;;;;;7.60;5.33;;;;;;;19.02;50.67;101773.31;5110531;28;20472;-61
2022/03/22 06:22:41;;;;;;;7.77;5.00;;;;;;;18.99;50.72;101783.44;5110656;28;20415;-61
2022/03/22 06:25:07;;;;;;;6.90;4.77;;;;;;;19.01;50.61;101780.22;5110909;28;20462;-61
2022/03/22 06:27:35;;;;;;;7.80;4.63;;;;;;;19.01;50.84;101783.09;5111114;28;20189;-62
2022/03/22 06:30:05;;;;;;;6.60;4.07;;;;;;;18.99;50.50;101782.56;5110140;28;20217;-61
2022/03/22 06:32:30;;;;;;;6.57;4.60;;;;;;;18.99;50.69;101779.72;5110249;28;20783;-61
2022/03/22 06:34:56;;;;;;;7.80;4.07;;;;;;;19.00;50.77;101787.97;5110691;28;20419;-61
2022/03/22 06:37:21;;;;;;;6.70;4.43;;;;;;;19.00;50.83;101785.09;5110500;28;20182;-61
2022/03/22 06:39:47;;;;;;;7.77;5.13;;;;;;;19.02;50.84;101790.47;5112880;27;20178;-62
2022/03/22 06:42:12;;;;;;;6.27;4.53;;;;;;;18.99;50.69;101789.16;5112802;27;20165;-61
2022/03/22 06:44:40;;;;;;;7.57;4.80;;;;;;;19.01;50.93;101798.22;5110416;28;20245;-61
2022/03/22 06:47:05;;;;;;;5.83;4.33;;;;;;;18.99;50.68;101806.31;5110809;28;20532;-62
2022/03/22 06:49:31;;;;;;;7.40;5.00;;;;;;;18.99;50.75;101802.59;5110048;28;20447;-61
2022/03/22 06:51:56;;;;;;;6.20;4.43;;;;;;;19.02;50.78;101807.66;5110449;28;20181;-61
2022/03/22 06:54:22;;;;;;;6.40;4.30;;;;;;;19.01;50.86;101798.22;5110461;28;20165;-61
2022/03/22 06:56:48;;;;;;;5.50;3.90;;;;;;;18.97;50.62;101796.41;5110524;28;20612;-61
2022/03/22 06:59:13;;;;;;;5.87;4.40;;;;;;;19.00;50.57;101793.69;5110154;28;20237;-61
2022/03/22 07:01:39;;;;;;;6.47;4.43;;;;;;;19.01;50.75;101803.94;5110586;28;20169;-61
2022/03/22 07:04:04;;;;;;;6.63;4.40;;;;;;;19.02;50.49;101808.47;5111165;28;20610;-61
2022/03/22 07:06:30;;;;;;;5.97;4.30;;;;;;;18.99;50.87;101806.31;5114195;28;20230;-61
2022/03/22 07:08:55;;;;;;;7.33;4.73;;;;;;;19.00;50.72;101810.00;5114034;28;20245;-61
2022/03/22 07:14:07;;;;;;;6.47;4.10;;;;;;;19.01;49.92;101821.13;5114810;28;20168;-61
2022/03/22 07:16:34;;;;;;;7.33;4.90;;;;;;;19.03;50.54;101824.47;5119462;27;20415;-61
2022/03/22 07:19:00;;;;;;;7.90;5.53;;;;;;;18.97;49.87;101825.03;5128345;27;20213;-63
2022/03/22 07:21:25;;;;;;;26.80;14.50;;;;;;;18.60;45.45;101821.03;5120600;27;20427;-61
2022/03/22 07:23:51;;;;;;;24.37;13.50;;;;;;;18.52;44.70;101826.81;5120273;27;20180;-62
2022/03/22 07:26:16;;;;;;;24.90;18.97;;;;;;;18.71;42.96;101830.91;5111021;27;20178;-62
2022/03/22 07:28:43;;;;;;;27.23;18.50;;;;;;;19.20;40.89;101826.34;5119975;27;20613;-63
2022/03/22 07:31:08;;;;;;;25.47;16.50;;;;;;;19.28;41.08;101823.47;5117243;27;20225;-63
2022/03/22 07:33:37;;;;;;;21.10;15.63;;;;;;;19.33;41.15;101820.41;5113515;28;20415;-63
2022/03/22 07:36:04;;;;;;;22.03;16.23;;;;;;;19.36;42.17;101827.47;5116764;27;20176;-64
2022/03/22 07:38:29;;;;;;;28.77;16.13;;;;;;;19.37;42.22;101820.53;5132306;27;20422;-63
2022/03/22 07:40:55;;;;;;;26.10;14.33;;;;;;;19.48;43.08;101824.66;5133485;27;20785;-64
2022/03/22 07:43:20;;;;;;;28.43;15.37;;;;;;;19.48;43.23;101825.50;5133157;27;20169;-64
2022/03/22 07:45:46;;;;;;;22.63;14.00;;;;;;;19.47;43.46;101825.84;5117437;27;20181;-65
2022/03/22 07:48:11;;;;;;;22.00;13.97;;;;;;;19.50;43.46;101825.13;5114078;27;20215;-64
2022/03/22 07:53:21;;;;;;;18.70;12.40;;;;;;;19.54;43.63;101811.78;5133689;27;20167;-64
2022/03/22 07:55:46;;;;;;;21.07;11.57;;;;;;;19.58;43.80;101816.47;5132742;27;20908;-64
2022/03/22 07:58:12;;;;;;;19.23;11.47;;;;;;;19.61;43.42;101821.47;5130194;27;20911;-62
2022/03/22 08:00:39;;;;;;;25.77;12.50;;;;;;;19.51;43.17;101813.31;5113110;28;20238;-63
2022/03/22 08:03:08;;;;;;;17.70;11.90;;;;;;;19.50;42.77;101819.41;5118074;27;20168;-62
2022/03/22 08:05:35;;;;;;;19.00;11.87;;;;;;;19.46;42.34;101824.19;5132694;27;20466;-62
2022/03/22 08:08:00;;;;;;;14.87;11.00;;;;;;;19.51;42.40;101818.22;5113188;28;20432;-64
2022/03/22 08:10:26;;;;;;;24.50;11.90;;;;;;;19.61;43.20;101830.09;5114855;27;20465;-64
2022/03/22 08:12:51;;;;;;;20.23;11.27;;;;;;;19.66;44.04;101837.63;5113737;27;20185;-65
2022/03/22 08:15:17;;;;;;;18.13;11.17;;;;;;;19.56;45.34;101838.88;5112758;27;20192;-64
2022/03/22 08:17:43;;;;;;;22.93;11.87;;;;;;;19.62;45.46;101828.88;5126147;27;20188;-64
2022/03/22 08:20:09;;;;;;;18.47;10.90;;;;;;;19.63;45.58;101839.19;5131933;27;20409;-62
2022/03/22 08:22:45;;;;;;;14.60;10.17;;;;;;;19.63;46.02;101844.91;5113362;27;20219;-63
2022/03/22 08:25:11;;;;;;;16.33;9.93;;;;;;;19.60;45.66;101841.88;5127175;27;20411;-62
2022/03/22 08:27:37;;;;;;;13.70;9.90;;;;;;;19.61;46.41;101843.59;5126519;27;20556;-62
2022/03/22 08:30:03;;;;;;;15.80;9.60;;;;;;;19.64;46.81;101835.13;5109973;27;20220;-63
2022/03/22 08:32:29;;;;;;;17.23;9.50;;;;;;;19.63;46.58;101844.06;5113676;27;20185;-64
2022/03/22 08:34:55;;;;;;;14.20;9.07;;;;;;;19.62;46.54;101848.13;5115344;27;20427;-62
2022/03/22 08:37:21;;;;;;;15.33;10.00;;;;;;;19.62;46.13;101837.47;5094073;28;20432;-64
2022/03/22 08:39:46;;;;;;;17.30;9.67;;;;;;;19.63;47.60;101846.94;5112679;27;20180;-62
2022/03/22 08:42:11;;;;;;;16.67;9.30;;;;;;;19.63;48.65;101844.91;5113106;27;20170;-64
2022/03/22 08:44:40;;;;;;;18.47;9.50;;;;;;;19.64;49.49;101846.59;5114738;27;20637;-64
2022/03/22 08:47:07;;;;;;;19.93;9.70;;;;;;;19.61;49.23;101843.59;5117861;27;20178;-64
2022/03/22 08:49:33;;;;;;;22.73;10.10;;;;;;;19.57;48.42;101840.56;5124797;27;20974;-62
2022/03/22 08:51:58;;;;;;;20.23;9.17;;;;;;;19.50;48.41;101842.31;5126255;27;20434;-62
2022/03/22 08:54:25;;;;;;;20.90;9.13;;;;;;;19.43;47.92;101828.56;5109827;28;20166;-62
2022/03/22 08:56:50;;;;;;;12.47;8.40;;;;;;;19.37;47.21;101829.94;5112262;28;20937;-62
2022/03/22 08:59:16;;;;;;;16.90;8.40;;;;;;;19.37;46.57;101829.13;5129142;27;20181;-62
2022/03/22 09:01:42;;;;;;;21.67;9.57;;;;;;;19.37;46.19;101840.59;5120551;27;20204;-62
2022/03/22 09:06:51;;;;;;;20.70;10.00;;;;;;;19.30;47.93;101823.97;5111996;28;20558;-62
2022/03/22 09:09:16;;;;;;;22.70;9.60;;;;;;;19.28;48.25;101823.47;5111825;28;20439;-61
2022/03/22 09:11:42;;;;;;;16.63;8.63;;;;;;;19.28;48.30;101826.34;5111794;28;20174;-62
2022/03/22 09:14:07;;;;;;;14.27;8.87;;;;;;;19.28;48.35;101823.47;5112175;28;20174;-61
2022/03/22 09:16:33;;;;;;;20.17;8.20;;;;;;;19.29;48.44;101822.28;5097276;27;20196;-62
2022/03/22 09:18:59;;;;;;;21.23;9.40;;;;;;;19.34;48.19;101824.94;5132250;27;20741;-61
2022/03/22 09:21:25;;;;;;;17.93;9.40;;;;;;;19.34;47.89;101821.22;5109188;27;20162;-61
2022/03/22 09:23:50;;;;;;;21.67;8.97;;;;;;;19.34;47.42;101830.66;5113539;27;20245;-61
2022/03/22 09:26:16;;;;;;;24.33;8.97;;;;;;;19.31;47.92;101831.34;5131999;27;20905;-62
2022/03/22 09:28:41;;;;;;;16.07;8.47;;;;;;;19.32;48.32;101830.16;5132333;27;20169;-61
2022/03/22 09:31:07;;;;;;;20.97;7.87;;;;;;;19.34;47.96;101824.94;5132053;27;20193;-61
2022/03/22 09:33:33;;;;;;;14.13;8.60;;;;;;;19.34;48.04;101830.66;5131283;27;20511;-62
2022/03/22 09:35:58;;;;;;;15.67;7.90;;;;;;;19.36;48.15;101828.28;5128945;27;20186;-61
2022/03/22 09:38:24;;;;;;;13.47;8.03;;;;;;;19.35;48.22;101828.63;5111971;28;20185;-61
2022/03/22 09:40:52;;;;;;;16.10;7.60;;;;;;;19.33;48.36;101829.00;5115615;27;20224;-61
2022/03/22 09:43:18;;;;;;;21.00;8.83;;;;;;;19.36;48.48;101825.41;5119987;27;20281;-61
2022/03/22 09:45:45;;;;;;;11.90;8.00;;;;;;;19.33;48.69;101828.16;5123017;27;20421;-61
2022/03/22 09:48:10;;;;;;;11.27;7.70;;;;;;;19.36;48.81;101833.19;5113461;27;20406;-62
2022/03/22 09:53:20;;;;;;;14.20;7.20;;;;;;;19.33;48.82;101825.28;5129757;27;20234;-62
2022/03/22 09:55:46;;;;;;;11.50;7.10;;;;;;;19.33;48.84;101822.41;5130751;27;20414;-62
2022/03/22 09:58:11;;;;;;;14.70;6.90;;;;;;;19.34;49.13;101818.38;5128927;27;20233;-62
2022/03/22 10:00:38;;;;;;;15.73;7.17;;;;;;;19.32;49.36;101820.75;5116404;27;20186;-62
2022/03/22 10:03:03;;;;;;;12.50;7.90;;;;;;;19.34;49.10;101821.22;5111514;28;20181;-62
2022/03/22 10:05:29;;;;;;;12.33;7.93;;;;;;;19.31;48.92;101813.34;5110712;28;20868;-62
2022/03/22 10:08:14;;;;;;;13.57;7.87;;;;;;;19.29;49.17;101813.69;5092980;28;20243;-62
2022/03/22 10:10:55;;;;;;;11.60;7.30;;;;;;;19.28;49.34;101820.63;5113001;27;20245;-61
2022/03/22 10:13:21;;;;;;;14.83;7.90;;;;;;;19.30;49.40;101817.38;5109600;28;20486;-62
2022/03/22 10:15:46;;;;;;;11.20;7.13;;;;;;;19.27;49.40;101813.19;5110890;28;20511;-62
2022/03/22 10:18:12;;;;;;;11.73;7.80;;;;;;;19.28;49.54;101802.59;5110852;28;20181;-62
2022/03/22 10:20:40;;;;;;;20.00;7.70;;;;;;;19.26;49.54;101810.69;5111116;27;20181;-61
2022/03/22 10:23:07;;;;;;;9.80;6.30;;;;;;;19.24;49.71;101810.19;5128958;27;20441;-63
2022/03/22 10:25:37;;;;;;;13.17;6.60;;;;;;;19.24;49.60;101804.47;5113542;27;20423;-61
2022/03/22 10:28:03;;;;;;;13.00;7.30;;;;;;;19.23;49.50;101800.78;5122147;27;20423;-63
2022/03/22 10:30:29;;;;;;;10.73;6.20;;;;;;;19.26;49.84;101799.25;5111811;27;20458;-61
2022/03/22 10:32:55;;;;;;;11.40;7.50;;;;;;;19.23;49.57;101797.91;5109125;28;20492;-61
2022/03/22 10:35:28;;;;;;;11.50;6.77;;;;;;;19.26;49.72;101800.06;5125325;27;20302;-61
2022/03/22 10:37:54;;;;;;;14.00;6.90;;;;;;;19.24;49.56;101795.88;5111405;27;20284;-61
2022/03/22 10:40:25;;;;;;;10.40;6.43;;;;;;;19.24;49.68;101796.72;5109717;28;20422;-61
2022/03/22 10:42:51;;;;;;;11.90;7.50;;;;;;;19.25;49.79;101792.66;5110159;28;20821;-61
2022/03/22 10:45:17;;;;;;;12.17;7.40;;;;;;;19.25;49.92;101789.81;5110566;28;21278;-61
2022/03/22 10:47:43;;;;;;;19.00;7.37;;;;;;;19.25;49.83;101789.81;5110617;28;20446;-61
2022/03/22 10:50:08;;;;;;;11.10;7.30;;;;;;;19.23;50.15;101789.34;5092365;28;20729;-61
2022/03/22 10:52:36;;;;;;;10.80;6.40;;;;;;;19.25;50.07;101780.38;5092085;28;20177;-61
2022/03/22 10:55:02;;;;;;;12.20;6.50;;;;;;;19.22;50.17;101784.75;5109603;28;20204;-61
2022/03/22 10:57:32;;;;;;;11.40;6.40;;;;;;;19.23;50.35;101783.59;5091961;28;20419;-61
2022/03/22 11:00:08;;;;;;;9.53;6.33;;;;;;;19.21;50.24;101783.06;5092488;28;20178;-61
2022/03/22 11:02:36;;;;;;;11.13;6.10;;;;;;;19.23;49.98;101780.75;5091849;28;20419;-61
2022/03/22 11:05:07;;;;;;;12.30;6.80;;;;;;;19.21;50.10;101777.34;5083123;28;20892;-61
2022/03/22 11:07:37;;;;;;;10.50;7.23;;;;;;;19.22;50.06;101776.19;5068461;28;20570;-61
2022/03/22 11:10:04;;;;;;;15.80;6.50;;;;;;;19.22;50.12;101779.03;5067782;28;20948;-61
2022/03/22 11:12:29;;;;;;;12.27;7.40;;;;;;;19.22;50.63;101773.31;5070099;28;20453;-61
2022/03/22 11:14:55;;;;;;;10.43;6.40;;;;;;;19.21;50.17;101768.75;5067433;28;20428;-61
2022/03/22 11:17:22;;;;;;;12.00;6.40;;;;;;;19.24;50.05;101772.97;5078915;28;20224;-61
2022/03/22 11:19:49;;;;;;;10.83;5.93;;;;;;;19.22;50.13;101764.72;5089931;28;20540;-62
2022/03/22 11:22:16;;;;;;;11.23;6.90;;;;;;;19.22;50.42;101761.88;5080393;28;20416;-61
2022/03/22 11:24:42;;;;;;;9.97;6.40;;;;;;;19.23;50.33;101771.31;5069679;28;20441;-61
2022/03/22 11:27:08;;;;;;;12.43;7.10;;;;;;;19.23;50.43;101760.69;5069495;28;20437;-61
2022/03/22 11:29:34;;;;;;;11.00;6.20;;;;;;;19.23;50.09;101760.69;5069384;28;20229;-61
2022/03/22 11:34:43;;;;;;;9.60;6.20;;;;;;;19.26;50.22;101757.13;5068547;28;20171;-61
2022/03/22 11:37:09;;;;;;;8.23;5.73;;;;;;;19.26;50.48;101754.25;5051472;28;20441;-61
2022/03/22 11:42:20;;;;;;;9.57;5.73;;;;;;;19.26;50.30;101745.66;5076223;28;20689;-61
2022/03/22 11:45:08;;;;;;;11.63;6.47;;;;;;;19.32;50.11;101752.03;5089711;28;20474;-61
2022/03/22 11:47:41;;;;;;;9.93;6.27;;;;;;;19.31;50.16;101748.31;5089915;28;20421;-61
2022/03/22 11:50:13;;;;;;;9.77;5.30;;;;;;;19.35;50.14;101745.56;5086418;28;20456;-61